sensor_id;sensor_type;location;lat;lon;timestamp;P1;durP1;ratioP1;P2;durP2;ratioP2
74644;SDS011;63163;55.630;37.594;2023-05-08T00:00:45;8.2;;;2.5;;
74644;SDS011;63163;55.630;37.594;2023-05-08T00:01:45;4.9;;;2.4;;
74644;SDS011;63163;55.630;37.594;2023-05-08T00:02:46;5.6;;;2.3;;
74644;SDS011;63163;55.630;37.594;2023-05-08T00:03:46;6.6;;;2.2;;
74644;SDS011;63163;55.630;37.594;2023-05-08T00:04:47;6.7;;;2.7;;
74644;SDS011;63163;55.630;37.594;2023-05-08T00:05:47;6.9;;;2.3;;
74644;SDS011;63163;55.630;37.594;2023-05-08T00:06:48;8.7;;;2.6;;
74644;SDS011;63163;55.630;37.594;2023-05-08T00:07:50;5.2;;;2.4;;
74644;SDS011;63163;55.630;37.594;2023-05-08T00:08:52;5.2;;;2.0;;
74644;SDS011;63163;55.630;37.594;2023-05-08T00:09:53;5.3;;;2.5;;
74644;SDS011;63163;55.630;37.594;2023-05-08T00:10:53;6.1;;;2.5;;
74644;SDS011;63163;55.630;37.594;2023-05-08T00:11:54;5.6;;;2.3;;
74644;SDS011;63163;55.630;37.594;2023-05-08T00:12:54;4.4;;;2.0;;
74644;SDS011;63163;55.630;37.594;2023-05-08T00:13:55;2.9;;;2.0;;
74644;SDS011;63163;55.630;37.594;2023-05-08T00:14:56;5.6;;;2.2;;
74644;SDS011;63163;55.630;37.594;2023-05-08T00:15:56;5.1;;;2.2;;
74644;SDS011;63163;55.630;37.594;2023-05-08T00:16:57;6.7;;;2.0;;
74644;SDS011;63163;55.630;37.594;2023-05-08T00:17:57;5.9;;;2.2;;
74644;SDS011;63163;55.630;37.594;2023-05-08T00:18:58;6.3;;;2.4;;
74644;SDS011;63163;55.630;37.594;2023-05-08T00:19:59;6.6;;;3.0;;
74644;SDS011;63163;55.630;37.594;2023-05-08T00:21:01;8.0;;;2.7;;
74644;SDS011;63163;55.630;37.594;2023-05-08T00:22:01;4.1;;;2.2;;
74644;SDS011;63163;55.630;37.594;2023-05-08T00:23:02;5.9;;;2.5;;
74644;SDS011;63163;55.630;37.594;2023-05-08T00:24:02;8.4;;;2.7;;
74644;SDS011;63163;55.630;37.594;2023-05-08T00:25:03;4.8;;;2.5;;
74644;SDS011;63163;55.630;37.594;2023-05-08T00:26:04;8.9;;;2.6;;
74644;SDS011;63163;55.630;37.594;2023-05-08T00:27:05;7.9;;;2.7;;
74644;SDS011;63163;55.630;37.594;2023-05-08T00:28:07;5.9;;;2.3;;
74644;SDS011;63163;55.630;37.594;2023-05-08T00:29:07;7.1;;;2.9;;
74644;SDS011;63163;55.630;37.594;2023-05-08T00:30:08;5.3;;;2.7;;
74644;SDS011;63163;55.630;37.594;2023-05-08T00:31:09;8.0;;;3.1;;
74644;SDS011;63163;55.630;37.594;2023-05-08T00:32:09;7.7;;;2.5;;
74644;SDS011;63163;55.630;37.594;2023-05-08T00:33:10;5.7;;;2.7;;
74644;SDS011;63163;55.630;37.594;2023-05-08T00:34:11;7.3;;;2.9;;
74644;SDS011;63163;55.630;37.594;2023-05-08T00:35:11;6.0;;;2.6;;
74644;SDS011;63163;55.630;37.594;2023-05-08T00:36:12;5.3;;;2.6;;
74644;SDS011;63163;55.630;37.594;2023-05-08T00:37:14;6.8;;;2.7;;
74644;SDS011;63163;55.630;37.594;2023-05-08T00:38:15;6.6;;;3.0;;
74644;SDS011;63163;55.630;37.594;2023-05-08T00:39:15;5.5;;;2.7;;
74644;SDS011;63163;55.630;37.594;2023-05-08T00:40:16;7.3;;;3.0;;
74644;SDS011;63163;55.630;37.594;2023-05-08T00:41:16;6.0;;;2.9;;
74644;SDS011;63163;55.630;37.594;2023-05-08T00:42:17;5.0;;;2.7;;
74644;SDS011;63163;55.630;37.594;2023-05-08T00:43:17;5.1;;;2.6;;
74644;SDS011;63163;55.630;37.594;2023-05-08T00:44:18;4.9;;;2.6;;
74644;SDS011;63163;55.630;37.594;2023-05-08T00:45:19;6.9;;;2.9;;
74644;SDS011;63163;55.630;37.594;2023-05-08T00:46:19;7.3;;;2.8;;
74644;SDS011;63163;55.630;37.594;2023-05-08T00:47:20;7.0;;;2.6;;
74644;SDS011;63163;55.630;37.594;2023-05-08T00:48:22;5.0;;;2.6;;
74644;SDS011;63163;55.630;37.594;2023-05-08T00:49:22;7.1;;;2.8;;
74644;SDS011;63163;55.630;37.594;2023-05-08T00:50:23;7.3;;;2.5;;
74644;SDS011;63163;55.630;37.594;2023-05-08T00:51:24;7.3;;;3.2;;
74644;SDS011;63163;55.630;37.594;2023-05-08T00:52:26;7.4;;;3.2;;
74644;SDS011;63163;55.630;37.594;2023-05-08T00:53:27;7.3;;;2.6;;
74644;SDS011;63163;55.630;37.594;2023-05-08T00:54:30;6.9;;;3.2;;
74644;SDS011;63163;55.630;37.594;2023-05-08T00:55:30;8.8;;;4.0;;
74644;SDS011;63163;55.630;37.594;2023-05-08T00:56:31;8.1;;;4.7;;
74644;SDS011;63163;55.630;37.594;2023-05-08T00:57:33;7.9;;;3.3;;
74644;SDS011;63163;55.630;37.594;2023-05-08T00:58:34;8.2;;;3.9;;
74644;SDS011;63163;55.630;37.594;2023-05-08T00:59:35;7.0;;;3.9;;
74644;SDS011;63163;55.630;37.594;2023-05-08T01:00:36;6.5;;;3.2;;
74644;SDS011;63163;55.630;37.594;2023-05-08T01:01:38;8.0;;;3.4;;
74644;SDS011;63163;55.630;37.594;2023-05-08T01:02:39;5.6;;;2.8;;
74644;SDS011;63163;55.630;37.594;2023-05-08T01:03:41;6.4;;;2.9;;
74644;SDS011;63163;55.630;37.594;2023-05-08T01:04:42;6.0;;;2.4;;
74644;SDS011;63163;55.630;37.594;2023-05-08T01:05:44;6.5;;;3.1;;
74644;SDS011;63163;55.630;37.594;2023-05-08T01:06:45;8.3;;;2.8;;
74644;SDS011;63163;55.630;37.594;2023-05-08T01:07:46;6.3;;;2.7;;
74644;SDS011;63163;55.630;37.594;2023-05-08T01:08:46;6.3;;;3.1;;
74644;SDS011;63163;55.630;37.594;2023-05-08T01:09:47;6.4;;;3.2;;
74644;SDS011;63163;55.630;37.594;2023-05-08T01:11:03;5.8;;;3.0;;
74644;SDS011;63163;55.630;37.594;2023-05-08T01:12:08;5.0;;;2.8;;
74644;SDS011;63163;55.630;37.594;2023-05-08T01:13:14;8.1;;;2.9;;
74644;SDS011;63163;55.630;37.594;2023-05-08T01:14:16;4.7;;;2.7;;
74644;SDS011;63163;55.630;37.594;2023-05-08T01:15:20;8.2;;;3.7;;
74644;SDS011;63163;55.630;37.594;2023-05-08T01:16:38;6.7;;;3.3;;
74644;SDS011;63163;55.630;37.594;2023-05-08T01:17:43;6.1;;;2.6;;
74644;SDS011;63163;55.630;37.594;2023-05-08T01:18:47;5.3;;;2.8;;
74644;SDS011;63163;55.630;37.594;2023-05-08T01:19:53;7.9;;;3.1;;
74644;SDS011;63163;55.630;37.594;2023-05-08T01:20:55;7.7;;;3.2;;
74644;SDS011;63163;55.630;37.594;2023-05-08T01:22:04;6.0;;;3.0;;
74644;SDS011;63163;55.630;37.594;2023-05-08T01:23:14;8.0;;;3.6;;
74644;SDS011;63163;55.630;37.594;2023-05-08T01:24:22;8.6;;;3.1;;
74644;SDS011;63163;55.630;37.594;2023-05-08T01:25:39;6.7;;;3.1;;
74644;SDS011;63163;55.630;37.594;2023-05-08T01:26:50;7.3;;;3.4;;
74644;SDS011;63163;55.630;37.594;2023-05-08T01:28:05;11.3;;;3.3;;
74644;SDS011;63163;55.630;37.594;2023-05-08T01:29:14;8.4;;;3.7;;
74644;SDS011;63163;55.630;37.594;2023-05-08T01:30:31;6.9;;;3.3;;
74644;SDS011;63163;55.630;37.594;2023-05-08T01:31:42;10.1;;;4.5;;
74644;SDS011;63163;55.630;37.594;2023-05-08T01:32:49;9.6;;;3.9;;
74644;SDS011;63163;55.630;37.594;2023-05-08T01:33:52;9.5;;;3.7;;
74644;SDS011;63163;55.630;37.594;2023-05-08T01:34:58;8.5;;;3.9;;
74644;SDS011;63163;55.630;37.594;2023-05-08T01:36:05;8.8;;;3.8;;
74644;SDS011;63163;55.630;37.594;2023-05-08T01:37:10;8.6;;;3.8;;
74644;SDS011;63163;55.630;37.594;2023-05-08T01:38:14;8.7;;;3.9;;
74644;SDS011;63163;55.630;37.594;2023-05-08T01:39:19;10.8;;;4.4;;
74644;SDS011;63163;55.630;37.594;2023-05-08T01:40:23;9.9;;;4.2;;
74644;SDS011;63163;55.630;37.594;2023-05-08T01:41:24;9.3;;;4.1;;
74644;SDS011;63163;55.630;37.594;2023-05-08T01:42:28;9.2;;;3.8;;
74644;SDS011;63163;55.630;37.594;2023-05-08T01:43:34;10.6;;;3.9;;
74644;SDS011;63163;55.630;37.594;2023-05-08T01:44:37;9.1;;;3.9;;
74644;SDS011;63163;55.630;37.594;2023-05-08T01:45:38;8.3;;;3.9;;
74644;SDS011;63163;55.630;37.594;2023-05-08T01:46:39;8.4;;;4.2;;
74644;SDS011;63163;55.630;37.594;2023-05-08T01:47:41;10.8;;;4.1;;
74644;SDS011;63163;55.630;37.594;2023-05-08T01:48:46;9.0;;;4.1;;
74644;SDS011;63163;55.630;37.594;2023-05-08T01:49:49;9.8;;;3.7;;
74644;SDS011;63163;55.630;37.594;2023-05-08T01:50:51;11.2;;;4.5;;
74644;SDS011;63163;55.630;37.594;2023-05-08T01:51:55;9.4;;;4.0;;
74644;SDS011;63163;55.630;37.594;2023-05-08T01:52:57;13.4;;;3.9;;
74644;SDS011;63163;55.630;37.594;2023-05-08T01:53:59;11.3;;;3.8;;
74644;SDS011;63163;55.630;37.594;2023-05-08T01:55:04;7.9;;;3.8;;
74644;SDS011;63163;55.630;37.594;2023-05-08T01:56:08;10.2;;;3.6;;
74644;SDS011;63163;55.630;37.594;2023-05-08T01:57:10;6.6;;;3.4;;
74644;SDS011;63163;55.630;37.594;2023-05-08T01:58:11;11.1;;;4.0;;
74644;SDS011;63163;55.630;37.594;2023-05-08T01:59:13;7.7;;;3.7;;
74644;SDS011;63163;55.630;37.594;2023-05-08T02:00:16;6.5;;;3.3;;
74644;SDS011;63163;55.630;37.594;2023-05-08T02:01:19;11.1;;;4.0;;
74644;SDS011;63163;55.630;37.594;2023-05-08T02:02:21;9.9;;;3.7;;
74644;SDS011;63163;55.630;37.594;2023-05-08T02:03:22;9.3;;;3.8;;
74644;SDS011;63163;55.630;37.594;2023-05-08T02:04:23;7.1;;;3.6;;
74644;SDS011;63163;55.630;37.594;2023-05-08T02:05:24;7.9;;;3.7;;
74644;SDS011;63163;55.630;37.594;2023-05-08T02:06:25;7.2;;;3.6;;
74644;SDS011;63163;55.630;37.594;2023-05-08T02:07:26;8.5;;;3.8;;
74644;SDS011;63163;55.630;37.594;2023-05-08T02:08:27;6.4;;;3.3;;
74644;SDS011;63163;55.630;37.594;2023-05-08T02:09:28;11.0;;;3.8;;
74644;SDS011;63163;55.630;37.594;2023-05-08T02:10:30;7.5;;;3.6;;
74644;SDS011;63163;55.630;37.594;2023-05-08T02:11:31;8.2;;;4.0;;
74644;SDS011;63163;55.630;37.594;2023-05-08T02:12:32;7.5;;;3.7;;
74644;SDS011;63163;55.630;37.594;2023-05-08T02:13:33;10.9;;;3.9;;
74644;SDS011;63163;55.630;37.594;2023-05-08T02:14:35;7.8;;;3.8;;
74644;SDS011;63163;55.630;37.594;2023-05-08T02:15:36;6.3;;;3.7;;
74644;SDS011;63163;55.630;37.594;2023-05-08T02:16:37;7.5;;;3.5;;
74644;SDS011;63163;55.630;37.594;2023-05-08T02:17:39;9.1;;;3.4;;
74644;SDS011;63163;55.630;37.594;2023-05-08T02:18:44;10.8;;;3.4;;
74644;SDS011;63163;55.630;37.594;2023-05-08T02:19:46;9.6;;;3.9;;
74644;SDS011;63163;55.630;37.594;2023-05-08T02:20:49;8.2;;;4.1;;
74644;SDS011;63163;55.630;37.594;2023-05-08T02:21:50;11.3;;;3.9;;
74644;SDS011;63163;55.630;37.594;2023-05-08T02:22:51;9.2;;;3.9;;
74644;SDS011;63163;55.630;37.594;2023-05-08T02:23:51;9.1;;;4.1;;
74644;SDS011;63163;55.630;37.594;2023-05-08T02:24:53;9.6;;;3.8;;
74644;SDS011;63163;55.630;37.594;2023-05-08T02:25:54;10.9;;;3.5;;
74644;SDS011;63163;55.630;37.594;2023-05-08T02:26:55;8.5;;;3.9;;
74644;SDS011;63163;55.630;37.594;2023-05-08T02:27:57;10.2;;;3.6;;
74644;SDS011;63163;55.630;37.594;2023-05-08T02:28:57;11.9;;;3.7;;
74644;SDS011;63163;55.630;37.594;2023-05-08T02:29:58;8.3;;;3.7;;
74644;SDS011;63163;55.630;37.594;2023-05-08T02:30:59;9.1;;;3.7;;
74644;SDS011;63163;55.630;37.594;2023-05-08T02:32:00;10.0;;;3.7;;
74644;SDS011;63163;55.630;37.594;2023-05-08T02:33:01;8.2;;;4.1;;
74644;SDS011;63163;55.630;37.594;2023-05-08T02:34:03;10.7;;;4.0;;
74644;SDS011;63163;55.630;37.594;2023-05-08T02:35:04;6.9;;;3.7;;
74644;SDS011;63163;55.630;37.594;2023-05-08T02:36:06;8.7;;;3.6;;
74644;SDS011;63163;55.630;37.594;2023-05-08T02:37:06;12.8;;;4.3;;
74644;SDS011;63163;55.630;37.594;2023-05-08T02:38:07;7.0;;;3.5;;
74644;SDS011;63163;55.630;37.594;2023-05-08T02:39:10;10.6;;;3.9;;
74644;SDS011;63163;55.630;37.594;2023-05-08T02:40:13;7.3;;;3.4;;
74644;SDS011;63163;55.630;37.594;2023-05-08T02:41:14;8.9;;;3.6;;
74644;SDS011;63163;55.630;37.594;2023-05-08T02:42:16;7.9;;;3.4;;
74644;SDS011;63163;55.630;37.594;2023-05-08T02:43:17;10.4;;;3.8;;
74644;SDS011;63163;55.630;37.594;2023-05-08T02:44:18;8.2;;;3.7;;
74644;SDS011;63163;55.630;37.594;2023-05-08T02:45:18;10.1;;;4.0;;
74644;SDS011;63163;55.630;37.594;2023-05-08T02:46:20;8.3;;;3.7;;
74644;SDS011;63163;55.630;37.594;2023-05-08T02:47:24;10.1;;;3.6;;
74644;SDS011;63163;55.630;37.594;2023-05-08T02:48:28;9.3;;;3.8;;
74644;SDS011;63163;55.630;37.594;2023-05-08T02:49:31;10.6;;;4.1;;
74644;SDS011;63163;55.630;37.594;2023-05-08T02:50:34;9.3;;;4.0;;
74644;SDS011;63163;55.630;37.594;2023-05-08T02:51:38;9.2;;;3.8;;
74644;SDS011;63163;55.630;37.594;2023-05-08T02:52:43;7.9;;;3.7;;
74644;SDS011;63163;55.630;37.594;2023-05-08T02:53:45;7.2;;;3.5;;
74644;SDS011;63163;55.630;37.594;2023-05-08T02:54:50;7.7;;;3.6;;
74644;SDS011;63163;55.630;37.594;2023-05-08T02:55:56;6.9;;;3.4;;
74644;SDS011;63163;55.630;37.594;2023-05-08T02:57:00;9.3;;;3.5;;
74644;SDS011;63163;55.630;37.594;2023-05-08T02:58:04;7.7;;;3.6;;
74644;SDS011;63163;55.630;37.594;2023-05-08T02:59:09;9.2;;;4.2;;
74644;SDS011;63163;55.630;37.594;2023-05-08T03:00:13;8.1;;;3.5;;
74644;SDS011;63163;55.630;37.594;2023-05-08T03:01:16;7.4;;;3.8;;
74644;SDS011;63163;55.630;37.594;2023-05-08T03:02:21;10.1;;;3.5;;
74644;SDS011;63163;55.630;37.594;2023-05-08T03:03:25;7.1;;;3.5;;
74644;SDS011;63163;55.630;37.594;2023-05-08T03:04:27;7.8;;;3.6;;
74644;SDS011;63163;55.630;37.594;2023-05-08T03:05:30;7.0;;;3.4;;
74644;SDS011;63163;55.630;37.594;2023-05-08T03:06:35;7.0;;;3.5;;
74644;SDS011;63163;55.630;37.594;2023-05-08T03:07:37;10.1;;;3.9;;
74644;SDS011;63163;55.630;37.594;2023-05-08T03:08:38;9.4;;;3.8;;
74644;SDS011;63163;55.630;37.594;2023-05-08T03:09:42;10.0;;;3.9;;
74644;SDS011;63163;55.630;37.594;2023-05-08T03:10:44;6.5;;;3.7;;
74644;SDS011;63163;55.630;37.594;2023-05-08T03:11:46;7.7;;;3.7;;
74644;SDS011;63163;55.630;37.594;2023-05-08T03:12:48;8.8;;;3.8;;
74644;SDS011;63163;55.630;37.594;2023-05-08T03:13:51;11.4;;;4.1;;
74644;SDS011;63163;55.630;37.594;2023-05-08T03:15:01;7.5;;;4.0;;
74644;SDS011;63163;55.630;37.594;2023-05-08T03:16:04;8.7;;;3.7;;
74644;SDS011;63163;55.630;37.594;2023-05-08T03:17:06;9.3;;;3.7;;
74644;SDS011;63163;55.630;37.594;2023-05-08T03:18:10;8.6;;;3.7;;
74644;SDS011;63163;55.630;37.594;2023-05-08T03:19:13;8.1;;;3.7;;
74644;SDS011;63163;55.630;37.594;2023-05-08T03:20:15;7.3;;;3.7;;
74644;SDS011;63163;55.630;37.594;2023-05-08T03:21:17;9.1;;;4.1;;
74644;SDS011;63163;55.630;37.594;2023-05-08T03:22:18;7.4;;;3.8;;
74644;SDS011;63163;55.630;37.594;2023-05-08T03:23:19;8.5;;;4.4;;
74644;SDS011;63163;55.630;37.594;2023-05-08T03:24:21;7.8;;;3.9;;
74644;SDS011;63163;55.630;37.594;2023-05-08T03:25:22;8.7;;;3.8;;
74644;SDS011;63163;55.630;37.594;2023-05-08T03:26:24;9.3;;;4.3;;
74644;SDS011;63163;55.630;37.594;2023-05-08T03:27:25;7.7;;;4.3;;
74644;SDS011;63163;55.630;37.594;2023-05-08T03:28:26;9.1;;;3.9;;
74644;SDS011;63163;55.630;37.594;2023-05-08T03:29:27;9.2;;;4.0;;
74644;SDS011;63163;55.630;37.594;2023-05-08T03:30:28;9.0;;;4.1;;
74644;SDS011;63163;55.630;37.594;2023-05-08T03:31:30;10.4;;;4.2;;
74644;SDS011;63163;55.630;37.594;2023-05-08T03:32:31;8.0;;;4.0;;
74644;SDS011;63163;55.630;37.594;2023-05-08T03:33:33;8.7;;;3.7;;
74644;SDS011;63163;55.630;37.594;2023-05-08T03:34:36;7.2;;;3.9;;
74644;SDS011;63163;55.630;37.594;2023-05-08T03:35:38;8.7;;;4.0;;
74644;SDS011;63163;55.630;37.594;2023-05-08T03:36:38;8.4;;;4.0;;
74644;SDS011;63163;55.630;37.594;2023-05-08T03:37:39;7.9;;;4.0;;
74644;SDS011;63163;55.630;37.594;2023-05-08T03:38:40;9.3;;;3.8;;
74644;SDS011;63163;55.630;37.594;2023-05-08T03:39:41;8.2;;;3.7;;
74644;SDS011;63163;55.630;37.594;2023-05-08T03:40:42;6.3;;;3.5;;
74644;SDS011;63163;55.630;37.594;2023-05-08T03:41:43;7.8;;;3.7;;
74644;SDS011;63163;55.630;37.594;2023-05-08T03:42:44;8.6;;;3.8;;
74644;SDS011;63163;55.630;37.594;2023-05-08T03:43:46;7.7;;;3.5;;
74644;SDS011;63163;55.630;37.594;2023-05-08T03:44:47;10.7;;;3.7;;
74644;SDS011;63163;55.630;37.594;2023-05-08T03:45:48;8.5;;;3.7;;
74644;SDS011;63163;55.630;37.594;2023-05-08T03:46:49;8.0;;;3.8;;
74644;SDS011;63163;55.630;37.594;2023-05-08T03:47:51;8.6;;;3.4;;
74644;SDS011;63163;55.630;37.594;2023-05-08T03:48:53;7.1;;;3.7;;
74644;SDS011;63163;55.630;37.594;2023-05-08T03:49:54;5.6;;;3.3;;
74644;SDS011;63163;55.630;37.594;2023-05-08T03:50:55;6.2;;;3.6;;
74644;SDS011;63163;55.630;37.594;2023-05-08T03:51:56;7.5;;;3.6;;
74644;SDS011;63163;55.630;37.594;2023-05-08T03:52:58;8.2;;;3.4;;
74644;SDS011;63163;55.630;37.594;2023-05-08T03:53:58;6.8;;;3.5;;
74644;SDS011;63163;55.630;37.594;2023-05-08T03:54:59;5.8;;;3.4;;
74644;SDS011;63163;55.630;37.594;2023-05-08T03:56:00;10.2;;;4.0;;
74644;SDS011;63163;55.630;37.594;2023-05-08T03:57:01;9.3;;;3.7;;
74644;SDS011;63163;55.630;37.594;2023-05-08T03:58:04;11.3;;;4.0;;
74644;SDS011;63163;55.630;37.594;2023-05-08T03:59:08;6.9;;;3.6;;
74644;SDS011;63163;55.630;37.594;2023-05-08T04:00:12;8.4;;;3.6;;
74644;SDS011;63163;55.630;37.594;2023-05-08T04:01:16;6.7;;;3.7;;
74644;SDS011;63163;55.630;37.594;2023-05-08T04:02:19;8.1;;;3.7;;
74644;SDS011;63163;55.630;37.594;2023-05-08T04:03:22;6.9;;;3.8;;
74644;SDS011;63163;55.630;37.594;2023-05-08T04:04:26;7.2;;;3.9;;
74644;SDS011;63163;55.630;37.594;2023-05-08T04:05:30;8.1;;;3.9;;
74644;SDS011;63163;55.630;37.594;2023-05-08T04:06:35;7.4;;;3.6;;
74644;SDS011;63163;55.630;37.594;2023-05-08T04:07:37;8.8;;;3.6;;
74644;SDS011;63163;55.630;37.594;2023-05-08T04:08:43;7.0;;;3.6;;
74644;SDS011;63163;55.630;37.594;2023-05-08T04:09:50;6.1;;;3.1;;
74644;SDS011;63163;55.630;37.594;2023-05-08T04:10:56;7.5;;;3.6;;
74644;SDS011;63163;55.630;37.594;2023-05-08T04:11:59;7.6;;;3.4;;
74644;SDS011;63163;55.630;37.594;2023-05-08T04:13:02;8.4;;;3.8;;
74644;SDS011;63163;55.630;37.594;2023-05-08T04:14:04;6.4;;;3.2;;
74644;SDS011;63163;55.630;37.594;2023-05-08T04:15:08;6.7;;;3.6;;
74644;SDS011;63163;55.630;37.594;2023-05-08T04:16:12;8.0;;;3.4;;
74644;SDS011;63163;55.630;37.594;2023-05-08T04:17:13;5.3;;;3.2;;
74644;SDS011;63163;55.630;37.594;2023-05-08T04:18:16;9.8;;;3.6;;
74644;SDS011;63163;55.630;37.594;2023-05-08T04:19:18;9.4;;;3.3;;
74644;SDS011;63163;55.630;37.594;2023-05-08T04:20:20;8.4;;;3.4;;
74644;SDS011;63163;55.630;37.594;2023-05-08T04:21:22;9.0;;;3.0;;
74644;SDS011;63163;55.630;37.594;2023-05-08T04:22:24;4.6;;;3.0;;
74644;SDS011;63163;55.630;37.594;2023-05-08T04:23:25;8.6;;;3.3;;
74644;SDS011;63163;55.630;37.594;2023-05-08T04:24:27;5.2;;;3.0;;
74644;SDS011;63163;55.630;37.594;2023-05-08T04:25:29;6.7;;;3.1;;
74644;SDS011;63163;55.630;37.594;2023-05-08T04:26:31;5.9;;;3.3;;
74644;SDS011;63163;55.630;37.594;2023-05-08T04:27:32;6.2;;;3.4;;
74644;SDS011;63163;55.630;37.594;2023-05-08T04:28:33;7.9;;;3.0;;
74644;SDS011;63163;55.630;37.594;2023-05-08T04:29:34;7.6;;;3.0;;
74644;SDS011;63163;55.630;37.594;2023-05-08T04:30:34;5.3;;;3.0;;
74644;SDS011;63163;55.630;37.594;2023-05-08T04:31:35;7.0;;;2.9;;
74644;SDS011;63163;55.630;37.594;2023-05-08T04:32:36;5.7;;;2.9;;
74644;SDS011;63163;55.630;37.594;2023-05-08T04:33:37;5.6;;;2.9;;
74644;SDS011;63163;55.630;37.594;2023-05-08T04:34:38;7.9;;;3.2;;
74644;SDS011;63163;55.630;37.594;2023-05-08T04:35:39;6.1;;;2.9;;
74644;SDS011;63163;55.630;37.594;2023-05-08T04:36:39;6.2;;;2.7;;
74644;SDS011;63163;55.630;37.594;2023-05-08T04:37:40;6.9;;;3.0;;
74644;SDS011;63163;55.630;37.594;2023-05-08T04:38:42;7.8;;;3.2;;
74644;SDS011;63163;55.630;37.594;2023-05-08T04:39:42;9.2;;;3.2;;
74644;SDS011;63163;55.630;37.594;2023-05-08T04:40:43;5.6;;;2.8;;
74644;SDS011;63163;55.630;37.594;2023-05-08T04:41:43;4.8;;;2.6;;
74644;SDS011;63163;55.630;37.594;2023-05-08T04:42:44;5.7;;;2.6;;
74644;SDS011;63163;55.630;37.594;2023-05-08T04:43:46;7.6;;;2.8;;
74644;SDS011;63163;55.630;37.594;2023-05-08T04:44:47;5.9;;;2.9;;
74644;SDS011;63163;55.630;37.594;2023-05-08T04:45:47;11.0;;;3.1;;
74644;SDS011;63163;55.630;37.594;2023-05-08T04:46:48;6.9;;;2.9;;
74644;SDS011;63163;55.630;37.594;2023-05-08T04:47:49;7.3;;;2.7;;
74644;SDS011;63163;55.630;37.594;2023-05-08T04:48:49;6.9;;;2.7;;
74644;SDS011;63163;55.630;37.594;2023-05-08T04:49:50;4.5;;;2.5;;
74644;SDS011;63163;55.630;37.594;2023-05-08T04:50:51;6.5;;;2.5;;
74644;SDS011;63163;55.630;37.594;2023-05-08T04:51:51;6.8;;;2.6;;
74644;SDS011;63163;55.630;37.594;2023-05-08T04:52:51;5.5;;;2.6;;
74644;SDS011;63163;55.630;37.594;2023-05-08T04:53:52;6.3;;;2.7;;
74644;SDS011;63163;55.630;37.594;2023-05-08T04:54:52;4.6;;;2.6;;
74644;SDS011;63163;55.630;37.594;2023-05-08T04:55:53;8.2;;;3.1;;
74644;SDS011;63163;55.630;37.594;2023-05-08T04:56:54;6.8;;;2.8;;
74644;SDS011;63163;55.630;37.594;2023-05-08T04:57:54;7.6;;;2.6;;
74644;SDS011;63163;55.630;37.594;2023-05-08T04:58:54;7.4;;;3.0;;
74644;SDS011;63163;55.630;37.594;2023-05-08T04:59:55;5.9;;;2.5;;
74644;SDS011;63163;55.630;37.594;2023-05-08T05:00:55;6.6;;;2.4;;
74644;SDS011;63163;55.630;37.594;2023-05-08T05:01:56;4.8;;;2.6;;
74644;SDS011;63163;55.630;37.594;2023-05-08T05:02:57;6.5;;;2.5;;
74644;SDS011;63163;55.630;37.594;2023-05-08T05:03:57;5.0;;;2.8;;
74644;SDS011;63163;55.630;37.594;2023-05-08T05:04:58;6.7;;;2.9;;
74644;SDS011;63163;55.630;37.594;2023-05-08T05:06:00;6.5;;;2.8;;
74644;SDS011;63163;55.630;37.594;2023-05-08T05:07:01;7.9;;;3.0;;
74644;SDS011;63163;55.630;37.594;2023-05-08T05:08:02;5.3;;;3.0;;
74644;SDS011;63163;55.630;37.594;2023-05-08T05:09:03;5.5;;;2.7;;
74644;SDS011;63163;55.630;37.594;2023-05-08T05:10:04;5.8;;;2.6;;
74644;SDS011;63163;55.630;37.594;2023-05-08T05:11:05;5.0;;;2.5;;
74644;SDS011;63163;55.630;37.594;2023-05-08T05:12:06;5.0;;;2.8;;
74644;SDS011;63163;55.630;37.594;2023-05-08T05:13:06;7.9;;;2.7;;
74644;SDS011;63163;55.630;37.594;2023-05-08T05:14:07;5.5;;;2.7;;
74644;SDS011;63163;55.630;37.594;2023-05-08T05:15:07;7.2;;;2.4;;
74644;SDS011;63163;55.630;37.594;2023-05-08T05:16:08;5.0;;;2.4;;
74644;SDS011;63163;55.630;37.594;2023-05-08T05:17:09;4.0;;;2.2;;
74644;SDS011;63163;55.630;37.594;2023-05-08T05:18:09;4.9;;;2.3;;
74644;SDS011;63163;55.630;37.594;2023-05-08T05:19:10;5.2;;;2.2;;
74644;SDS011;63163;55.630;37.594;2023-05-08T05:20:11;5.3;;;2.3;;
74644;SDS011;63163;55.630;37.594;2023-05-08T05:21:12;4.1;;;2.4;;
74644;SDS011;63163;55.630;37.594;2023-05-08T05:22:13;9.3;;;2.7;;
74644;SDS011;63163;55.630;37.594;2023-05-08T05:23:13;7.9;;;2.0;;
74644;SDS011;63163;55.630;37.594;2023-05-08T05:24:14;6.4;;;2.1;;
74644;SDS011;63163;55.630;37.594;2023-05-08T05:25:14;4.8;;;2.1;;
74644;SDS011;63163;55.630;37.594;2023-05-08T05:26:15;5.9;;;2.1;;
74644;SDS011;63163;55.630;37.594;2023-05-08T05:27:15;5.9;;;2.1;;
74644;SDS011;63163;55.630;37.594;2023-05-08T05:28:16;4.5;;;2.0;;
74644;SDS011;63163;55.630;37.594;2023-05-08T05:29:17;5.6;;;2.6;;
74644;SDS011;63163;55.630;37.594;2023-05-08T05:30:17;4.7;;;2.3;;
74644;SDS011;63163;55.630;37.594;2023-05-08T05:31:18;6.2;;;2.2;;
74644;SDS011;63163;55.630;37.594;2023-05-08T05:32:19;5.8;;;2.3;;
74644;SDS011;63163;55.630;37.594;2023-05-08T05:33:19;6.1;;;2.4;;
74644;SDS011;63163;55.630;37.594;2023-05-08T05:34:20;5.3;;;2.7;;
74644;SDS011;63163;55.630;37.594;2023-05-08T05:35:20;5.5;;;2.3;;
74644;SDS011;63163;55.630;37.594;2023-05-08T05:36:21;3.0;;;2.0;;
74644;SDS011;63163;55.630;37.594;2023-05-08T05:37:21;4.1;;;2.2;;
74644;SDS011;63163;55.630;37.594;2023-05-08T05:38:22;4.7;;;2.2;;
74644;SDS011;63163;55.630;37.594;2023-05-08T05:39:23;3.6;;;2.0;;
74644;SDS011;63163;55.630;37.594;2023-05-08T05:40:23;5.2;;;2.1;;
74644;SDS011;63163;55.630;37.594;2023-05-08T05:41:24;4.0;;;2.3;;
74644;SDS011;63163;55.630;37.594;2023-05-08T05:42:25;4.5;;;2.1;;
74644;SDS011;63163;55.630;37.594;2023-05-08T05:43:26;4.2;;;1.8;;
74644;SDS011;63163;55.630;37.594;2023-05-08T05:44:26;5.3;;;2.1;;
74644;SDS011;63163;55.630;37.594;2023-05-08T05:45:27;5.2;;;2.0;;
74644;SDS011;63163;55.630;37.594;2023-05-08T05:46:27;5.8;;;2.0;;
74644;SDS011;63163;55.630;37.594;2023-05-08T05:47:31;3.8;;;1.9;;
74644;SDS011;63163;55.630;37.594;2023-05-08T05:48:32;4.8;;;2.0;;
74644;SDS011;63163;55.630;37.594;2023-05-08T05:49:32;4.1;;;2.0;;
74644;SDS011;63163;55.630;37.594;2023-05-08T05:50:33;3.8;;;1.6;;
74644;SDS011;63163;55.630;37.594;2023-05-08T05:51:34;3.4;;;1.7;;
74644;SDS011;63163;55.630;37.594;2023-05-08T05:52:34;3.8;;;1.6;;
74644;SDS011;63163;55.630;37.594;2023-05-08T05:53:35;3.9;;;1.6;;
74644;SDS011;63163;55.630;37.594;2023-05-08T05:54:35;3.9;;;1.7;;
74644;SDS011;63163;55.630;37.594;2023-05-08T05:55:36;3.1;;;1.5;;
74644;SDS011;63163;55.630;37.594;2023-05-08T05:56:36;5.9;;;2.2;;
74644;SDS011;63163;55.630;37.594;2023-05-08T05:57:37;4.4;;;2.0;;
74644;SDS011;63163;55.630;37.594;2023-05-08T05:58:37;7.1;;;2.8;;
74644;SDS011;63163;55.630;37.594;2023-05-08T05:59:39;4.9;;;2.2;;
74644;SDS011;63163;55.630;37.594;2023-05-08T06:00:40;6.3;;;2.2;;
74644;SDS011;63163;55.630;37.594;2023-05-08T06:01:40;4.1;;;2.3;;
74644;SDS011;63163;55.630;37.594;2023-05-08T06:02:41;4.7;;;2.3;;
74644;SDS011;63163;55.630;37.594;2023-05-08T06:03:42;3.6;;;2.4;;
74644;SDS011;63163;55.630;37.594;2023-05-08T06:04:43;8.4;;;2.6;;
74644;SDS011;63163;55.630;37.594;2023-05-08T06:05:45;5.5;;;2.7;;
74644;SDS011;63163;55.630;37.594;2023-05-08T06:06:46;5.7;;;2.7;;
74644;SDS011;63163;55.630;37.594;2023-05-08T06:07:46;5.5;;;2.6;;
74644;SDS011;63163;55.630;37.594;2023-05-08T06:08:47;6.4;;;2.6;;
74644;SDS011;63163;55.630;37.594;2023-05-08T06:09:47;6.3;;;2.6;;
74644;SDS011;63163;55.630;37.594;2023-05-08T06:10:50;8.2;;;2.9;;
74644;SDS011;63163;55.630;37.594;2023-05-08T06:11:50;4.5;;;2.6;;
74644;SDS011;63163;55.630;37.594;2023-05-08T06:12:51;4.2;;;2.3;;
74644;SDS011;63163;55.630;37.594;2023-05-08T06:13:52;6.6;;;2.8;;
74644;SDS011;63163;55.630;37.594;2023-05-08T06:14:53;4.4;;;2.5;;
74644;SDS011;63163;55.630;37.594;2023-05-08T06:15:53;4.6;;;2.5;;
74644;SDS011;63163;55.630;37.594;2023-05-08T06:16:55;6.7;;;2.3;;
74644;SDS011;63163;55.630;37.594;2023-05-08T06:17:56;6.6;;;2.5;;
74644;SDS011;63163;55.630;37.594;2023-05-08T06:18:56;5.4;;;2.1;;